Time;durP1;ratioP1;P1;durP2;ratioP2;P2;SDS_P1;SDS_P2;PMS_P1;PMS_P2;Temp;Humidity;BMP_temperature;BMP_pressure;BME280_temperature;BME280_humidity;BME280_pressure;Samples;Min_cycle;Max_cycle;Signal;HPM_P1;HPM_P2
2020/12/23 00:01:19;;;;;;;33.45;20.62;;;;;;;2.50;88.52;102242.55;1926588;74;21037;-82
2020/12/23 00:03:47;;;;;;;37.25;22.55;;;;;;;2.53;88.49;102248.92;1920175;74;21031;-82
2020/12/23 00:06:58;;;;;;;44.65;25.12;;;;;;;2.54;88.46;102244.23;1919391;74;21009;-83
2020/12/23 00:09:26;;;;;;;46.37;25.60;;;;;;;2.54;88.39;102242.95;1919582;74;22157;-82
2020/12/23 00:11:54;;;;;;;41.70;24.30;;;;;;;2.52;88.39;102244.22;1919496;74;21555;-81
2020/12/23 00:14:23;;;;;;;41.00;23.27;;;;;;;2.51;88.31;102237.42;1919649;74;20985;-81
2020/12/23 00:16:50;;;;;;;38.53;23.45;;;;;;;2.51;88.35;102235.28;1919718;74;21170;-81
2020/12/23 00:19:18;;;;;;;39.38;23.40;;;;;;;2.53;88.39;102238.67;1919622;74;21131;-83
2020/12/23 00:21:46;;;;;;;42.00;23.73;;;;;;;2.54;88.47;102232.70;1919679;74;21641;-83
2020/12/23 00:24:14;;;;;;;36.25;21.65;;;;;;;2.56;88.28;102238.22;1919769;74;21182;-82
2020/12/23 00:26:44;;;;;;;38.02;22.35;;;;;;;2.56;88.03;102236.09;1919835;74;21078;-82
2020/12/23 00:29:12;;;;;;;34.13;20.32;;;;;;;2.56;87.80;102234.80;1919626;74;21095;-82
2020/12/23 00:31:40;;;;;;;37.75;23.83;;;;;;;2.58;87.74;102236.52;1919779;74;21083;-81
2020/12/23 00:34:08;;;;;;;35.73;22.73;;;;;;;2.59;87.71;102236.91;1919584;74;21350;-83
2020/12/23 00:36:37;;;;;;;34.63;21.50;;;;;;;2.64;87.68;102235.61;1919650;74;20909;-83
2020/12/23 00:39:05;;;;;;;39.53;23.55;;;;;;;2.65;87.62;102229.59;1919746;74;21542;-81
2020/12/23 00:41:32;;;;;;;35.70;21.90;;;;;;;2.68;87.50;102224.44;1919956;74;21561;-81
2020/12/23 00:44:00;;;;;;;38.02;22.10;;;;;;;2.70;87.41;102223.16;1919781;74;21055;-83
2020/12/23 00:46:29;;;;;;;37.70;23.40;;;;;;;2.72;87.35;102227.83;1919858;74;22084;-82
2020/12/23 00:48:57;;;;;;;36.95;23.27;;;;;;;2.74;87.22;102221.00;1920039;74;21561;-82
2020/12/23 00:51:24;;;;;;;37.60;21.85;;;;;;;2.75;87.16;102220.97;1886652;74;21166;-82
2020/12/23 00:53:52;;;;;;;36.03;22.42;;;;;;;2.76;87.16;102219.27;1919653;74;21103;-82
2020/12/23 00:56:20;;;;;;;39.53;23.70;;;;;;;2.77;87.24;102217.98;1919599;74;21166;-82
2020/12/23 00:58:48;;;;;;;38.23;23.80;;;;;;;2.77;87.18;102214.14;1919801;74;21172;-81
2020/12/23 01:01:16;;;;;;;41.08;24.12;;;;;;;2.77;87.17;102207.73;1919453;74;21055;-82
2020/12/23 01:03:45;;;;;;;33.90;22.02;;;;;;;2.76;87.21;102207.73;1924716;74;21451;-82
2020/12/23 01:06:14;;;;;;;34.92;21.97;;;;;;;2.74;87.25;102205.20;1926451;74;21000;-82
2020/12/23 01:08:43;;;;;;;32.90;21.60;;;;;;;2.73;87.28;102196.22;1926439;74;21450;-82
2020/12/23 01:11:11;;;;;;;43.20;24.43;;;;;;;2.73;87.51;102191.95;1926624;74;21197;-82
2020/12/23 01:13:40;;;;;;;36.40;23.15;;;;;;;2.74;87.61;102189.81;1926609;74;21074;-82
2020/12/23 01:16:09;;;;;;;37.13;22.20;;;;;;;2.76;87.53;102191.06;1926790;74;20952;-81
2020/12/23 01:18:37;;;;;;;34.25;21.45;;;;;;;2.76;87.47;102197.48;1926612;74;21530;-82
2020/12/23 01:21:08;;;;;;;38.20;23.62;;;;;;;2.77;87.57;102200.04;1926396;74;21578;-81
2020/12/23 01:23:36;;;;;;;38.35;23.25;;;;;;;2.78;87.42;102203.00;1926750;74;21178;-82
2020/12/23 01:26:04;;;;;;;37.40;22.67;;;;;;;2.79;87.30;102199.58;1926490;74;21110;-81
2020/12/23 06:59:46;;;;;;;43.35;25.08;;;;;;;3.81;93.11;102067.00;1847112;77;22013;-84
2020/12/23 07:02:14;;;;;;;40.52;22.87;;;;;;;3.84;93.00;102072.09;1740172;82;21134;-84
2020/12/23 07:04:48;;;;;;;40.25;23.67;;;;;;;3.89;92.82;102071.60;1783266;80;21341;-84
2020/12/23 07:07:41;;;;;;;33.30;20.32;;;;;;;3.88;92.66;102071.17;1779242;80;21017;-84
2020/12/23 07:10:16;;;;;;;33.63;20.43;;;;;;;3.91;92.63;102080.55;1797669;79;21392;-84
2020/12/23 07:12:51;;;;;;;32.90;20.30;;;;;;;3.93;92.69;102072.38;1815900;78;21508;-84
2020/12/23 07:15:40;;;;;;;36.40;20.37;;;;;;;3.96;92.64;102077.45;1815394;78;21077;-83
2020/12/23 07:18:12;;;;;;;31.50;19.92;;;;;;;4.01;92.66;102081.67;1789230;79;21194;-82
2020/12/23 07:21:04;;;;;;;29.75;19.23;;;;;;;4.08;92.58;102085.84;1785099;79;21956;-84
2020/12/23 07:23:36;;;;;;;34.40;19.00;;;;;;;4.16;92.50;102083.97;1784547;79;21057;-83
2020/12/23 07:26:09;;;;;;;32.63;20.82;;;;;;;4.26;92.40;102081.66;1783166;79;21061;-82
2020/12/23 07:28:40;;;;;;;33.85;20.85;;;;;;;4.37;92.25;102079.34;1788170;80;21053;-82
2020/12/23 07:31:10;;;;;;;28.87;18.17;;;;;;;4.46;91.96;102082.59;1788083;79;21278;-81
2020/12/23 07:33:42;;;;;;;28.40;18.37;;;;;;;4.53;91.72;102082.05;1788061;80;20939;-83
2020/12/23 07:36:11;;;;;;;29.55;18.42;;;;;;;4.60;91.40;102087.03;1789347;79;20989;-82
2020/12/23 07:38:41;;;;;;;31.90;20.52;;;;;;;4.66;91.08;102093.77;1810684;79;21532;-82
2020/12/23 07:41:12;;;;;;;33.90;20.30;;;;;;;4.67;90.80;102086.05;1814525;79;21627;-81
2020/12/23 07:43:45;;;;;;;30.08;19.57;;;;;;;4.69;90.54;102079.60;1814947;79;21754;-83
2020/12/23 07:46:14;;;;;;;32.33;19.73;;;;;;;4.68;90.28;102081.32;1815181;79;21543;-83
2020/12/23 07:48:44;;;;;;;30.02;19.98;;;;;;;4.71;90.33;102085.12;1799347;79;21088;-82
2020/12/23 07:51:12;;;;;;;30.05;19.57;;;;;;;4.72;90.38;102091.11;1729464;80;21010;-83
2020/12/23 07:53:42;;;;;;;30.65;19.12;;;;;;;4.70;90.33;102096.27;1732211;80;21604;-81
2020/12/23 07:56:10;;;;;;;30.50;19.40;;;;;;;4.69;90.44;102089.89;1794087;78;21189;-82
2020/12/23 08:01:26;;;;;;;30.90;18.42;;;;;;;4.88;90.39;102082.22;1959004;72;22608;-84
2020/12/23 08:04:09;;;;;;;28.38;19.07;;;;;;;4.90;90.07;102084.75;1922259;74;21098;-83
2020/12/23 08:06:42;;;;;;;28.45;18.75;;;;;;;4.88;89.91;102075.80;1921684;73;21229;-83
2020/12/23 08:09:15;;;;;;;30.23;20.02;;;;;;;4.85;89.61;102071.97;1921483;73;21071;-83
2020/12/23 08:11:46;;;;;;;30.27;19.27;;;;;;;4.78;89.56;102080.70;1894218;73;21032;-84
2020/12/23 08:14:19;;;;;;;27.40;18.50;;;;;;;4.79;89.67;102078.09;1885079;74;20897;-84
2020/12/23 08:16:46;;;;;;;32.90;21.07;;;;;;;4.74;89.66;102081.20;1891535;73;21071;-84
2020/12/23 08:19:19;;;;;;;32.45;20.43;;;;;;;4.70;89.90;102081.27;1927668;73;21170;-83
2020/12/23 08:21:49;;;;;;;31.17;20.65;;;;;;;4.74;90.30;102072.63;1942354;72;21059;-83
2020/12/23 08:24:17;;;;;;;31.40;20.17;;;;;;;4.80;90.36;102074.65;1941887;73;21736;-83
2020/12/23 08:26:47;;;;;;;34.13;21.80;;;;;;;4.88;90.40;102078.36;1899886;73;21154;-82
2020/12/23 08:29:15;;;;;;;34.03;21.37;;;;;;;5.02;90.38;102076.34;1885602;73;21595;-83
2020/12/23 08:31:44;;;;;;;33.83;20.97;;;;;;;5.16;90.24;102076.06;1886444;73;21241;-83
2020/12/23 08:34:12;;;;;;;28.15;20.35;;;;;;;5.29;90.03;102075.78;1874633;73;21049;-83
2020/12/23 08:36:41;;;;;;;31.33;21.20;;;;;;;5.43;89.72;102064.30;1896365;73;21036;-82
2020/12/23 08:39:10;;;;;;;29.85;19.70;;;;;;;5.51;89.26;102059.84;1886347;74;21039;-83
2020/12/23 08:41:38;;;;;;;38.02;23.15;;;;;;;5.61;89.07;102060.05;1897358;73;21100;-82
2020/12/23 08:44:06;;;;;;;35.83;23.45;;;;;;;5.69;88.83;102058.12;1804310;76;21360;-83
2020/12/23 08:46:34;;;;;;;37.75;23.18;;;;;;;5.74;88.22;102062.73;1831356;77;21203;-82
2020/12/23 08:49:02;;;;;;;32.35;22.02;;;;;;;5.76;87.82;102059.23;1770555;78;20894;-82
2020/12/23 08:51:31;;;;;;;33.45;22.77;;;;;;;5.77;87.62;102057.52;1825290;78;22278;-82
2020/12/23 08:53:59;;;;;;;36.28;22.55;;;;;;;5.78;87.54;102048.88;1839257;76;21047;-83
2020/12/23 08:56:31;;;;;;;37.58;22.60;;;;;;;5.80;87.45;102045.41;1836777;77;21186;-84
2020/12/23 08:59:05;;;;;;;35.70;23.07;;;;;;;5.79;87.01;102035.98;1877548;75;28255;-83
2020/12/23 09:01:35;;;;;;;33.00;21.52;;;;;;;5.81;87.06;102032.06;1843802;75;21187;-83
2020/12/23 09:04:10;;;;;;;41.35;25.50;;;;;;;5.84;87.01;102026.84;1855337;77;20970;-83
2020/12/23 09:06:42;;;;;;;34.73;22.87;;;;;;;5.89;86.85;102028.91;1823549;78;21194;-82
2020/12/23 09:09:17;;;;;;;29.95;19.57;;;;;;;5.95;86.67;102025.32;1829629;77;21185;-82
2020/12/23 09:11:51;;;;;;;33.60;21.25;;;;;;;6.00;86.22;102019.16;1854008;75;21156;-82
2020/12/23 09:14:40;;;;;;;28.57;18.17;;;;;;;6.03;85.87;102016.97;1845988;75;20984;-83
2020/12/23 09:17:10;;;;;;;29.70;18.23;;;;;;;6.11;85.67;102012.02;1892461;75;21152;-81
2020/12/23 09:22:39;;;;;;;26.37;18.25;;;;;;;6.27;83.77;102011.16;1924741;73;22768;-84
2020/12/23 09:25:26;;;;;;;26.65;17.27;;;;;;;6.32;83.03;102011.88;1869470;74;21093;-82
2020/12/23 09:27:56;;;;;;;26.60;16.82;;;;;;;6.30;82.09;102009.79;1884158;74;21178;-83
2020/12/23 09:30:41;;;;;;;29.30;17.80;;;;;;;6.33;81.67;102013.57;1794818;78;21009;-81
2020/12/23 09:33:17;;;;;;;25.70;16.77;;;;;;;6.30;81.20;102022.67;1841047;77;21009;-84
2020/12/23 09:35:51;;;;;;;25.92;16.42;;;;;;;6.12;80.61;102018.87;1859056;76;21127;-80
2020/12/23 09:38:27;;;;;;;29.70;17.02;;;;;;;5.95;80.76;102018.88;1827579;78;20937;-81
2020/12/23 09:41:00;;;;;;;26.80;16.35;;;;;;;5.80;81.30;102017.52;1799940;79;22156;-81
2020/12/23 09:43:31;;;;;;;24.60;16.45;;;;;;;5.69;81.78;102008.75;1832659;78;21492;-81
2020/12/23 09:46:06;;;;;;;26.73;17.85;;;;;;;5.64;82.24;102003.31;1836043;77;21076;-84
2020/12/23 09:51:20;;;;;;;24.70;16.27;;;;;;;5.76;82.75;101990.13;1968254;72;22378;-83
2020/12/23 09:53:50;;;;;;;26.50;17.05;;;;;;;5.81;82.98;101989.13;1854820;77;21015;-81
2020/12/23 09:56:19;;;;;;;27.75;17.85;;;;;;;5.94;82.90;101986.27;1856847;77;21188;-81
2020/12/23 09:58:47;;;;;;;26.27;16.05;;;;;;;6.11;82.81;101982.37;1854293;76;21073;-81
2020/12/23 10:01:15;;;;;;;26.12;16.85;;;;;;;6.30;82.13;101972.41;1856889;77;20922;-82
2020/12/23 10:03:43;;;;;;;24.57;16.62;;;;;;;6.47;81.33;101968.08;1856595;77;21339;-83
2020/12/23 10:06:17;;;;;;;27.02;17.37;;;;;;;6.62;80.52;101954.30;1855345;77;20979;-81
2020/12/23 10:08:47;;;;;;;25.00;16.37;;;;;;;6.64;78.54;101955.09;1858318;77;21333;-82
2020/12/23 10:11:20;;;;;;;27.00;17.85;;;;;;;6.59;78.41;101964.70;1855446;76;21014;-82
2020/12/23 10:13:48;;;;;;;30.95;18.42;;;;;;;6.48;77.81;101962.05;1826457;78;21017;-83
2020/12/23 10:16:16;;;;;;;27.55;17.48;;;;;;;6.35;77.05;101958.50;1838001;76;21175;-83
2020/12/23 10:18:44;;;;;;;32.28;18.50;;;;;;;6.18;76.52;101962.44;1855851;77;21080;-84
2020/12/23 11:30:02;;;;;;;29.50;16.50;;;;;;;5.74;74.97;101906.45;1817650;78;22400;-84
2020/12/23 11:32:30;;;;;;;29.67;17.23;;;;;;;5.70;74.94;101906.16;1788694;79;21521;-80
2020/12/23 11:34:58;;;;;;;25.23;16.20;;;;;;;5.70;75.01;101902.72;1784633;80;21338;-83
2020/12/23 11:37:31;;;;;;;32.23;17.50;;;;;;;5.80;75.09;101894.73;1718065;83;20971;-84
2020/12/23 11:43:08;;;;;;;26.85;15.88;;;;;;;6.09;74.80;101893.11;1816339;77;21995;-82
2020/12/23 11:45:37;;;;;;;27.13;16.12;;;;;;;6.19;74.13;101890.22;1767688;78;21200;-84
2020/12/23 11:48:05;;;;;;;27.40;16.48;;;;;;;6.28;74.24;101879.67;1793666;78;21835;-80
2020/12/23 11:50:33;;;;;;;26.23;15.35;;;;;;;6.45;74.12;101867.98;1760406;78;20994;-82
2020/12/23 11:53:11;;;;;;;23.47;15.05;;;;;;;6.73;73.30;101861.95;1762345;80;21021;-80
2020/12/23 11:55:39;;;;;;;24.37;16.32;;;;;;;7.05;71.95;101860.92;1765260;80;21087;-81
2020/12/23 12:01:05;;;;;;;25.80;16.30;;;;;;;7.70;69.55;101850.13;1956470;73;22563;-83
2020/12/23 12:03:37;;;;;;;29.10;17.25;;;;;;;7.83;68.09;101847.50;1920025;74;20983;-84
2020/12/23 12:06:10;;;;;;;25.23;16.20;;;;;;;7.82;67.08;101841.48;1855276;76;22275;-81
2020/12/23 12:08:38;;;;;;;23.00;16.12;;;;;;;7.77;67.56;101843.84;1891232;74;21051;-82
2020/12/23 12:11:11;;;;;;;28.52;17.73;;;;;;;8.02;67.83;101844.65;1896054;73;21677;-82
2020/12/23 12:13:40;;;;;;;26.35;17.45;;;;;;;8.33;67.10;101845.66;1908604;74;20980;-83
2020/12/23 12:16:10;;;;;;;28.98;17.85;;;;;;;8.57;66.19;101855.54;1898551;74;20980;-83
2020/12/23 12:19:02;;;;;;;29.45;18.10;;;;;;;8.55;64.20;101865.11;1906650;73;21357;-83
2020/12/23 12:21:33;;;;;;;29.75;18.20;;;;;;;8.25;64.69;101863.19;1908308;74;20976;-80
2020/12/23 12:24:07;;;;;;;28.65;18.17;;;;;;;8.04;65.34;101862.22;1907574;73;21011;-80
2020/12/23 12:26:34;;;;;;;32.20;19.45;;;;;;;7.85;65.79;101863.78;1885485;76;21085;-81
2020/12/23 12:29:04;;;;;;;28.45;19.17;;;;;;;7.70;66.15;101860.02;1885347;74;21134;-80
2020/12/23 12:31:34;;;;;;;29.15;18.17;;;;;;;7.55;66.71;101863.14;1883694;74;21217;-80
2020/12/23 12:34:02;;;;;;;29.25;18.52;;;;;;;7.49;67.18;101874.13;1885349;74;21158;-80
2020/12/23 12:36:40;;;;;;;30.37;19.23;;;;;;;7.43;67.75;101876.00;1907215;74;21111;-79
2020/12/23 12:39:17;;;;;;;30.65;19.30;;;;;;;7.34;67.74;101876.75;1885085;74;22024;-81
2020/12/23 12:41:55;;;;;;;30.85;19.17;;;;;;;7.27;68.21;101883.04;1906408;74;21130;-82
2020/12/23 12:44:25;;;;;;;30.97;17.95;;;;;;;7.20;68.34;101878.97;1921261;74;21172;-81
2020/12/23 12:46:55;;;;;;;28.87;18.80;;;;;;;7.06;68.69;101879.41;1921028;74;20995;-81
2020/12/23 12:49:30;;;;;;;30.07;18.00;;;;;;;7.04;69.35;101885.52;1921738;74;21067;-83
2020/12/23 12:51:58;;;;;;;33.88;19.65;;;;;;;7.09;69.71;101886.20;1899946;74;21785;-80
2020/12/23 12:54:26;;;;;;;30.97;19.32;;;;;;;7.07;69.50;101889.28;1895339;73;21138;-78
2020/12/23 12:56:59;;;;;;;33.65;19.80;;;;;;;7.01;69.56;101898.08;1903058;74;21176;-79
2020/12/23 12:59:30;;;;;;;29.98;19.30;;;;;;;7.03;69.93;101883.38;1912413;73;21042;-82
2020/12/23 13:01:58;;;;;;;30.43;19.55;;;;;;;6.99;69.95;101878.38;1918918;74;21622;-84
2020/12/23 13:04:27;;;;;;;32.40;19.62;;;;;;;6.92;70.18;101876.44;1912747;73;21139;-79
2020/12/23 13:06:57;;;;;;;28.62;19.05;;;;;;;6.91;70.26;101877.31;1912892;73;21080;-79
2020/12/23 13:09:26;;;;;;;29.30;18.80;;;;;;;6.89;70.16;101868.80;1894871;74;21175;-83
2020/12/23 13:12:02;;;;;;;29.85;19.50;;;;;;;6.90;70.35;101866.59;1822885;76;21686;-81
2020/12/23 13:14:34;;;;;;;33.15;20.00;;;;;;;6.94;70.41;101859.16;1833739;77;21145;-81
2020/12/23 13:17:04;;;;;;;29.35;18.98;;;;;;;7.03;70.28;101859.30;1842858;77;21450;-85
2020/12/23 13:19:37;;;;;;;31.23;20.33;;;;;;;7.05;69.72;101853.19;1842844;77;20989;-82
2020/12/23 13:22:07;;;;;;;30.85;19.80;;;;;;;6.96;69.82;101850.06;1827515;77;21193;-81
2020/12/23 13:24:35;;;;;;;32.05;20.17;;;;;;;6.85;70.02;101845.26;1829809;77;21021;-81
2020/12/23 13:27:04;;;;;;;33.30;21.57;;;;;;;6.75;70.39;101840.84;1839235;77;20989;-80
2020/12/23 13:29:32;;;;;;;35.30;22.62;;;;;;;6.70;70.72;101840.59;1830588;77;21472;-81
2020/12/23 13:32:04;;;;;;;36.10;20.92;;;;;;;6.67;71.04;101851.82;1840259;77;21564;-80
2020/12/23 13:34:33;;;;;;;33.10;20.17;;;;;;;6.67;71.22;101854.88;1829553;77;21417;-81
2020/12/23 13:37:01;;;;;;;30.85;19.37;;;;;;;6.60;71.26;101856.80;1845790;77;21579;-82
2020/12/23 13:39:31;;;;;;;33.20;20.37;;;;;;;6.55;71.82;101847.05;1858736;77;21586;-81
2020/12/23 13:42:01;;;;;;;35.13;21.33;;;;;;;6.47;72.15;101834.84;1860846;77;21092;-83
2020/12/23 13:44:29;;;;;;;35.33;20.68;;;;;;;6.37;72.39;101833.43;1860284;77;20914;-80
2020/12/23 13:47:00;;;;;;;31.45;20.20;;;;;;;6.27;72.69;101839.75;1859308;76;21183;-80
2020/12/23 13:49:28;;;;;;;40.88;21.90;;;;;;;6.22;73.07;101850.64;1848755;77;21159;-80
2020/12/23 13:51:57;;;;;;;33.85;21.12;;;;;;;6.17;73.43;101843.47;1832540;77;21057;-80
2020/12/23 13:57:19;;;;;;;34.55;21.80;;;;;;;6.12;74.34;101848.78;1813574;76;22717;-79
2020/12/23 13:59:51;;;;;;;36.40;21.52;;;;;;;6.03;74.51;101848.20;1780879;80;20998;-79
2020/12/23 14:02:20;;;;;;;37.95;22.82;;;;;;;5.96;74.93;101847.96;1718246;82;22186;-81
2020/12/23 14:04:48;;;;;;;36.42;20.52;;;;;;;5.92;75.23;101855.37;1702466;82;21579;-79
2020/12/23 14:07:16;;;;;;;38.02;22.80;;;;;;;5.91;75.42;101856.24;1753129;81;21056;-83
2020/12/23 14:09:45;;;;;;;37.23;22.80;;;;;;;5.90;75.68;101851.56;1753647;79;21629;-79
2020/12/23 14:12:13;;;;;;;40.88;22.37;;;;;;;5.85;75.81;101851.67;1752421;81;21045;-81
2020/12/23 14:14:41;;;;;;;39.00;22.37;;;;;;;5.81;76.19;101837.15;1753939;81;21516;-80
2020/12/23 14:17:09;;;;;;;39.60;22.82;;;;;;;5.81;76.40;101836.30;1752120;81;21607;-80
2020/12/23 14:19:36;;;;;;;35.98;21.10;;;;;;;5.78;76.62;101827.38;1752187;81;21560;-80
2020/12/23 14:22:04;;;;;;;39.58;23.18;;;;;;;5.79;76.84;101832.50;1753831;81;20922;-81
2020/12/23 14:24:35;;;;;;;41.13;22.30;;;;;;;5.76;76.99;101824.86;1753440;81;21069;-81
2020/12/23 14:27:07;;;;;;;40.20;23.18;;;;;;;5.73;77.12;101819.79;1752310;81;21545;-80
2020/12/23 14:29:35;;;;;;;38.17;22.67;;;;;;;5.72;77.37;101809.52;1753315;81;21159;-80
2020/12/23 14:32:03;;;;;;;40.20;23.98;;;;;;;5.70;77.50;101809.58;1753508;78;20918;-81
2020/12/23 14:34:31;;;;;;;36.60;22.22;;;;;;;5.67;77.58;101810.95;1753467;81;20931;-81
2020/12/23 14:36:59;;;;;;;38.60;22.07;;;;;;;5.63;77.74;101810.63;1752971;81;21583;-81
2020/12/23 14:39:27;;;;;;;37.80;22.98;;;;;;;5.58;77.99;101802.63;1752394;81;22514;-81
2020/12/23 14:41:55;;;;;;;39.48;22.62;;;;;;;5.50;78.21;101800.25;1753404;79;21056;-79
2020/12/23 14:44:23;;;;;;;43.55;23.10;;;;;;;5.47;78.48;101811.07;1752736;81;21065;-81
2020/12/23 14:46:52;;;;;;;38.78;22.42;;;;;;;5.41;78.75;101808.22;1752289;81;21607;-80
2020/12/23 14:49:20;;;;;;;38.78;22.45;;;;;;;5.38;79.03;101820.33;1753600;81;22504;-83
2020/12/23 14:51:51;;;;;;;36.90;21.60;;;;;;;5.36;79.28;101824.68;1753680;81;21368;-81
2020/12/23 14:54:20;;;;;;;37.80;21.20;;;;;;;5.36;79.55;101815.67;1754920;79;21018;-83
2020/12/23 14:56:48;;;;;;;39.90;22.98;;;;;;;5.34;79.83;101814.41;1750913;81;21066;-80
2020/12/23 14:59:16;;;;;;;36.35;22.70;;;;;;;5.31;80.04;101811.48;1748027;81;21037;-80
2020/12/23 15:01:48;;;;;;;36.73;22.40;;;;;;;5.29;80.25;101808.11;1748242;82;20927;-82
2020/12/23 15:04:16;;;;;;;37.42;21.45;;;;;;;5.30;80.49;101806.36;1726830;82;21448;-83
2020/12/23 15:06:51;;;;;;;39.10;23.02;;;;;;;5.28;80.71;101789.69;1749837;82;21144;-83
2020/12/23 15:09:22;;;;;;;39.83;22.85;;;;;;;5.27;80.91;101781.98;1748871;82;21037;-81
2020/12/23 15:11:49;;;;;;;41.33;24.55;;;;;;;5.25;81.16;101790.20;1747248;81;21212;-80
2020/12/23 15:14:17;;;;;;;42.13;23.70;;;;;;;5.22;81.39;101800.58;1748052;81;21152;-80
2020/12/23 15:16:46;;;;;;;40.78;22.65;;;;;;;5.20;81.59;101794.17;1747473;82;22178;-80
2020/12/23 15:19:14;;;;;;;34.45;20.97;;;;;;;5.17;81.79;101790.86;1748556;82;21192;-81
2020/12/23 15:21:42;;;;;;;37.13;22.65;;;;;;;5.15;82.01;101794.75;1746526;82;21664;-80
2020/12/23 15:24:10;;;;;;;34.30;20.77;;;;;;;5.14;82.15;101797.34;1748058;81;21896;-80
2020/12/23 15:26:38;;;;;;;34.73;20.75;;;;;;;5.14;82.34;101797.34;1748416;82;21552;-83
2020/12/23 15:29:07;;;;;;;37.78;22.77;;;;;;;5.13;82.54;101791.38;1748926;78;22116;-81
2020/12/23 15:31:37;;;;;;;40.70;23.73;;;;;;;5.11;82.70;101789.70;1749279;82;21145;-82
2020/12/23 15:34:05;;;;;;;37.13;22.85;;;;;;;5.08;82.83;101789.78;1749879;78;21109;-81
2020/12/23 15:36:34;;;;;;;35.70;21.48;;;;;;;5.05;83.10;101786.85;1748667;82;20946;-82
2020/12/23 15:39:04;;;;;;;38.20;22.85;;;;;;;5.02;83.26;101792.52;1747805;82;21137;-81
2020/12/23 15:41:32;;;;;;;42.75;24.07;;;;;;;4.99;83.41;101797.73;1748897;81;21189;-80
2020/12/23 15:43:59;;;;;;;43.08;22.93;;;;;;;4.98;83.68;101809.75;1749130;78;21011;-80
2020/12/23 15:46:27;;;;;;;39.40;23.25;;;;;;;4.95;83.87;101813.68;1748365;81;21119;-81
2020/12/23 15:48:55;;;;;;;41.05;22.45;;;;;;;4.93;83.99;101801.75;1747860;82;21055;-80
2020/12/23 15:51:23;;;;;;;40.85;22.80;;;;;;;4.92;84.14;101793.62;1747434;82;21052;-80
2020/12/23 15:53:51;;;;;;;37.70;22.62;;;;;;;4.92;84.33;101797.04;1747395;82;22088;-80
2020/12/23 15:56:19;;;;;;;37.78;23.02;;;;;;;4.92;84.52;101793.18;1748520;81;21160;-82
2020/12/23 15:58:46;;;;;;;38.30;22.45;;;;;;;4.95;84.61;101792.25;1751717;81;21631;-80
2020/12/23 16:01:14;;;;;;;43.85;23.00;;;;;;;4.93;84.62;101779.45;1751644;81;21461;-81
2020/12/23 16:03:42;;;;;;;40.17;22.42;;;;;;;4.96;84.70;101778.52;1753245;79;21493;-80
2020/12/23 16:06:10;;;;;;;35.63;21.62;;;;;;;4.97;84.73;101782.80;1751818;81;21354;-81
2020/12/23 16:08:38;;;;;;;36.83;22.55;;;;;;;4.98;84.76;101783.20;1751490;81;21182;-79
2020/12/23 16:11:06;;;;;;;47.67;25.37;;;;;;;4.99;84.81;101799.02;1751801;81;21041;-82
2020/12/23 16:13:34;;;;;;;36.83;23.02;;;;;;;4.99;84.89;101781.86;1752371;81;20918;-81
2020/12/23 16:16:02;;;;;;;39.48;22.82;;;;;;;5.00;84.89;101775.00;1751590;81;21204;-81
2020/12/23 16:18:30;;;;;;;44.15;24.80;;;;;;;5.00;84.92;101774.56;1724607;82;21636;-80
2020/12/23 16:21:01;;;;;;;38.23;23.77;;;;;;;5.03;84.96;101773.63;1753354;80;20994;-84
2020/12/23 16:23:29;;;;;;;39.90;24.52;;;;;;;5.04;84.90;101761.19;1753170;81;21097;-82
2020/12/23 16:25:58;;;;;;;39.80;24.02;;;;;;;5.04;84.86;101762.00;1753859;80;21024;-82
2020/12/23 16:28:26;;;;;;;44.58;25.48;;;;;;;5.01;84.82;101762.08;1752737;81;21151;-82
2020/12/23 16:30:54;;;;;;;36.95;23.30;;;;;;;4.99;84.84;101761.29;1752361;81;21140;-80
2020/12/23 16:33:21;;;;;;;38.05;23.18;;;;;;;4.99;84.89;101763.01;1751876;81;21037;-81
2020/12/23 16:35:49;;;;;;;40.48;24.52;;;;;;;5.00;84.95;101758.28;1752005;81;21105;-81
2020/12/23 16:38:17;;;;;;;43.13;25.82;;;;;;;5.01;84.88;101763.36;1751512;81;21132;-80
2020/12/23 16:40:47;;;;;;;43.02;26.42;;;;;;;5.02;84.91;101758.64;1752151;81;21176;-81
2020/12/23 16:43:15;;;;;;;40.10;24.85;;;;;;;5.03;84.87;101759.05;1754407;80;21151;-81
2020/12/23 16:45:43;;;;;;;42.38;25.20;;;;;;;5.04;84.79;101759.42;1753880;80;21157;-81
2020/12/23 16:48:11;;;;;;;44.03;27.52;;;;;;;5.02;84.77;101760.36;1751955;81;21097;-81
2020/12/23 16:50:39;;;;;;;39.67;25.00;;;;;;;5.02;84.75;101753.92;1752264;80;21030;-80
2020/12/23 16:53:07;;;;;;;47.03;26.93;;;;;;;5.01;84.92;101742.79;1752083;81;21143;-80
2020/12/23 16:55:35;;;;;;;45.80;26.93;;;;;;;5.03;84.90;101748.76;1751725;81;22175;-80
2020/12/23 16:58:03;;;;;;;45.33;26.37;;;;;;;5.04;84.85;101753.47;1747929;81;21183;-80
2020/12/23 17:00:31;;;;;;;52.55;28.15;;;;;;;5.04;84.88;101753.00;1747667;82;21077;-80
2020/12/23 17:02:59;;;;;;;45.12;27.27;;;;;;;5.05;84.96;101746.13;1747708;82;21146;-81
2020/12/23 17:05:27;;;;;;;47.98;29.23;;;;;;;5.05;85.04;101752.13;1749223;81;21141;-81
2020/12/23 17:07:55;;;;;;;44.20;27.75;;;;;;;5.06;85.04;101752.97;1747470;82;21811;-81
2020/12/23 17:10:24;;;;;;;49.20;29.72;;;;;;;5.08;85.16;101751.19;1747491;82;21111;-80
2020/12/23 17:12:53;;;;;;;49.60;29.32;;;;;;;5.09;85.24;101755.03;1747153;81;21155;-81
2020/12/23 17:15:22;;;;;;;52.15;30.52;;;;;;;5.12;85.38;101760.53;1747379;81;20939;-80
2020/12/23 17:17:50;;;;;;;45.12;28.23;;;;;;;5.12;85.56;101761.81;1747196;82;21116;-80
2020/12/23 17:20:17;;;;;;;47.88;30.88;;;;;;;5.15;85.73;101774.16;1747328;81;21155;-80
2020/12/23 17:22:45;;;;;;;50.85;29.92;;;;;;;5.17;85.84;101762.09;1747486;81;21069;-80
2020/12/23 17:25:13;;;;;;;48.48;30.75;;;;;;;5.17;86.05;101757.41;1747559;81;21053;-81
2020/12/23 17:27:41;;;;;;;53.90;31.52;;;;;;;5.17;86.25;101753.08;1747616;82;21192;-81
2020/12/23 17:30:09;;;;;;;47.20;28.35;;;;;;;5.16;86.43;101748.84;1749024;82;21182;-84
2020/12/23 17:32:37;;;;;;;50.67;31.50;;;;;;;5.09;86.80;101745.17;1748702;81;22141;-81
2020/12/23 17:35:05;;;;;;;48.20;30.70;;;;;;;4.98;87.25;101740.30;1748088;82;21100;-82
2020/12/23 17:37:40;;;;;;;53.55;32.48;;;;;;;4.87;87.81;101732.03;1748143;81;21064;-82
2020/12/23 17:40:08;;;;;;;50.28;32.35;;;;;;;4.81;88.39;101730.90;1747378;82;21761;-82
2020/12/23 17:42:43;;;;;;;53.17;32.85;;;;;;;4.76;88.86;101733.57;1747096;82;21144;-81
2020/12/23 17:45:14;;;;;;;50.55;32.10;;;;;;;4.73;89.44;101737.51;1747892;82;21199;-82
2020/12/23 17:47:42;;;;;;;48.55;30.30;;;;;;;4.74;90.01;101751.22;1747752;82;21188;-82
2020/12/23 17:50:10;;;;;;;46.42;30.25;;;;;;;4.73;90.38;101753.38;1748323;81;21668;-82
2020/12/23 17:52:42;;;;;;;52.35;32.42;;;;;;;4.73;90.68;101761.08;1699833;84;21206;-83
2020/12/23 17:55:10;;;;;;;53.55;32.93;;;;;;;4.71;90.89;101762.42;1749643;82;21018;-83
2020/12/23 17:57:37;;;;;;;53.63;34.10;;;;;;;4.73;91.33;101761.08;1694886;83;21196;-83
2020/12/23 18:00:07;;;;;;;51.92;32.65;;;;;;;4.73;91.69;101763.66;1704001;84;21160;-84
2020/12/23 18:02:43;;;;;;;51.77;31.62;;;;;;;4.75;91.97;101761.91;1703198;84;21130;-85
2020/12/23 18:05:15;;;;;;;52.88;32.78;;;;;;;4.76;92.15;101769.57;1702089;84;21264;-85
2020/12/23 18:09:24;;;;;;;54.33;31.87;;;;;;;4.77;92.35;101754.99;1654746;82;21610;-86
2020/12/23 18:16:08;;;;;;;55.88;34.38;;;;;;;4.76;92.76;101751.57;1754447;80;20986;-86
2020/12/23 18:19:03;;;;;;;56.53;34.45;;;;;;;4.74;93.05;101748.64;1754119;82;20911;-86
2020/12/23 18:22:08;;;;;;;58.58;35.48;;;;;;;4.73;93.34;101754.66;1754207;81;21180;-86
2020/12/23 18:24:38;;;;;;;64.25;36.77;;;;;;;4.73;93.55;101752.94;1752897;81;21823;-86
2020/12/23 18:27:09;;;;;;;61.77;38.20;;;;;;;4.72;93.73;101756.84;1752252;81;21371;-86
2020/12/23 18:29:59;;;;;;;62.10;35.35;;;;;;;4.71;93.97;101752.58;1752767;82;20994;-85
2020/12/23 18:32:27;;;;;;;55.05;34.53;;;;;;;4.69;94.17;101753.88;1752163;82;21148;-83
2020/12/23 18:34:54;;;;;;;58.70;35.40;;;;;;;4.68;94.40;101755.22;1751707;82;21100;-82